createdAt,value
2022-10-22T00:02:20.046Z,101735.69
2022-10-22T00:07:22.205Z,101729.47
2022-10-22T00:12:25.205Z,101737.53
2022-10-22T00:17:27.380Z,101740.38
2022-10-22T00:22:29.448Z,101748.28
2022-10-22T00:27:31.634Z,101750.13
2022-10-22T00:32:33.970Z,101749.28
2022-10-22T00:37:36.279Z,101741.22
2022-10-22T00:42:39.161Z,101750.13
2022-10-22T00:47:42.983Z,101736.97
2022-10-22T00:52:45.261Z,101734.16
2022-10-22T00:57:48.068Z,101735.00
2022-10-22T01:02:52.595Z,101727.06
2022-10-22T01:07:54.772Z,101735.00
2022-10-22T01:13:25.900Z,101717.31
2022-10-22T01:18:36.920Z,101719.00
2022-10-22T01:24:06.984Z,101713.78
2022-10-22T01:29:17.819Z,101715.47
2022-10-22T01:34:20.784Z,101712.66
2022-10-22T01:39:24.413Z,101710.81
2022-10-22T01:44:32.736Z,101705.59
2022-10-22T01:50:03.445Z,101687.78
2022-10-22T01:55:32.993Z,101685.09
2022-10-22T02:00:40.102Z,101683.25
2022-10-22T02:05:56.332Z,101675.19
2022-10-22T02:10:59.652Z,101670.66
2022-10-22T02:16:02.255Z,101670.97
2022-10-22T02:21:06.032Z,101659.22
2022-10-22T02:26:22.317Z,101664.44
2022-10-22T02:31:30.188Z,101654.69
2022-10-22T02:36:32.552Z,101644.13
2022-10-22T02:41:35.267Z,101653.03
2022-10-22T02:46:39.469Z,101652.00
2022-10-22T02:51:41.550Z,101655.53
2022-10-22T02:56:43.598Z,101655.53
2022-10-22T03:01:45.519Z,101652.84
2022-10-22T03:06:49.131Z,101653.84
2022-10-22T03:11:51.354Z,101652.00
2022-10-22T03:16:53.380Z,101647.47
2022-10-22T03:22:22.345Z,101653.84
2022-10-22T03:27:26.432Z,101660.91
2022-10-22T03:32:28.411Z,101655.72
2022-10-22T03:37:30.649Z,101658.22
2022-10-22T03:42:32.762Z,101670.81
2022-10-22T03:47:34.797Z,101670.81
2022-10-22T03:52:39.638Z,101660.22
2022-10-22T03:57:41.756Z,101662.91
2022-10-22T04:02:43.931Z,101653.03
2022-10-22T04:07:46.008Z,101648.47
2022-10-22T04:12:48.826Z,101655.00
2022-10-22T04:17:50.832Z,101652.19
2022-10-22T04:22:52.887Z,101655.84
2022-10-22T04:27:54.973Z,101665.59
2022-10-22T04:32:56.980Z,101663.91
2022-10-22T04:37:59.084Z,101681.72
2022-10-22T04:43:01.233Z,101676.50
2022-10-22T04:48:03.388Z,101684.41
2022-10-22T04:53:05.489Z,101687.09
2022-10-22T04:58:07.593Z,101693.44
2022-10-22T05:03:09.726Z,101701.50
2022-10-22T05:08:11.751Z,101691.75
2022-10-22T05:13:13.788Z,101689.91
2022-10-22T05:18:17.865Z,101685.53
2022-10-22T05:23:22.392Z,101691.91
2022-10-22T05:28:24.556Z,101688.22
2022-10-22T05:33:27.589Z,101690.06
2022-10-22T05:38:29.782Z,101699.81
2022-10-22T05:43:31.958Z,101700.66
2022-10-22T05:48:34.638Z,101704.19
2022-10-22T05:53:39.483Z,101713.25
2022-10-22T05:58:42.140Z,101712.25
2022-10-22T06:03:44.860Z,101707.03
2022-10-22T06:08:48.907Z,101707.03
2022-10-22T06:13:52.076Z,101703.50
2022-10-22T06:18:54.003Z,101723.13
2022-10-22T06:23:57.635Z,101709.72
2022-10-22T06:28:59.660Z,101723.28
2022-10-22T06:34:01.804Z,101749.16
2022-10-22T06:39:04.883Z,101753.69
2022-10-22T06:44:06.973Z,101751.84
2022-10-22T06:49:14.399Z,101755.50
2022-10-22T06:54:16.624Z,101760.88
2022-10-22T06:59:18.700Z,101777.00
2022-10-22T07:04:20.620Z,101778.84
2022-10-22T07:09:22.670Z,101784.06
2022-10-22T07:14:24.742Z,101804.72
2022-10-22T07:19:27.024Z,101797.50
2022-10-22T07:24:29.018Z,101804.72
2022-10-22T07:29:31.044Z,101810.94
2022-10-22T07:34:34.406Z,101820.81
2022-10-22T07:39:36.411Z,101826.91
2022-10-22T07:44:38.313Z,101827.91
2022-10-22T07:49:40.304Z,101817.16
2022-10-22T07:54:42.227Z,101829.59
2022-10-22T07:59:44.237Z,101835.09
2022-10-22T08:04:46.283Z,101854.75
2022-10-22T08:09:48.330Z,101856.47
2022-10-22T08:14:50.339Z,101848.53
2022-10-22T08:19:52.322Z,101858.28
2022-10-22T08:24:54.369Z,101864.53
2022-10-22T08:29:56.467Z,101848.53
2022-10-22T08:34:58.454Z,101866.34
2022-10-22T08:40:00.506Z,101869.03
2022-10-22T08:45:12.971Z,101868.19
2022-10-22T08:50:22.999Z,101890.41
2022-10-22T08:55:26.253Z,101884.16
2022-10-22T09:00:35.361Z,101891.06
2022-10-22T09:06:06.572Z,101897.47
2022-10-22T09:11:11.517Z,101884.16
2022-10-22T09:16:20.573Z,101892.22
2022-10-22T09:21:39.576Z,101880.63
2022-10-22T09:26:41.834Z,101880.63
2022-10-22T09:31:43.875Z,101893.94
2022-10-22T09:36:45.893Z,101896.75
2022-10-22T09:41:47.886Z,101890.41
2022-10-22T09:46:49.894Z,101894.06
2022-10-22T09:51:57.688Z,101893.09
2022-10-22T09:57:22.617Z,101895.75
2022-10-22T10:02:43.733Z,101901.13
2022-10-22T10:07:48.247Z,101907.38
2022-10-22T10:13:02.807Z,101911.72
2022-10-22T10:18:23.376Z,101905.38
2022-10-22T10:23:37.965Z,101914.56
2022-10-22T10:29:05.548Z,101919.78
2022-10-22T10:34:16.426Z,101910.72
2022-10-22T10:39:30.926Z,101913.59
2022-10-22T10:44:41.979Z,101914.56
2022-10-22T10:49:44.992Z,101902.66
2022-10-22T10:54:54.714Z,101909.03
2022-10-22T11:00:21.669Z,101893.09
2022-10-22T11:05:50.394Z,101898.28
2022-10-22T11:10:58.532Z,101889.25
2022-10-22T11:16:21.752Z,101884.84
2022-10-22T11:21:23.769Z,101878.34
2022-10-22T11:26:49.175Z,101876.53
2022-10-22T11:31:54.869Z,101874.81
2022-10-22T11:36:58.781Z,101873.84
2022-10-22T11:42:05.424Z,101864.22
2022-10-22T11:47:20.018Z,101862.38
2022-10-22T11:52:38.792Z,101857.00
2022-10-22T11:57:42.842Z,101855.03
2022-10-22T12:02:45.358Z,101847.97
2022-10-22T12:07:54.793Z,101837.22
2022-10-22T12:13:03.078Z,101824.78
2022-10-22T12:18:06.479Z,101821.09
2022-10-22T12:23:12.691Z,101810.50
2022-10-22T12:28:16.350Z,101811.91
2022-10-22T12:33:23.546Z,101805.81
2022-10-22T12:38:25.996Z,101794.09
2022-10-22T12:43:30.669Z,101779.69
2022-10-22T12:48:40.525Z,101777.97
2022-10-22T12:53:54.687Z,101775.28
2022-10-22T12:59:02.568Z,101768.09
2022-10-22T13:04:17.724Z,101762.56
2022-10-22T13:09:27.642Z,101753.66
2022-10-22T13:14:36.161Z,101757.34
2022-10-22T13:19:44.876Z,101736.13
2022-10-22T13:24:51.479Z,101742.06
2022-10-22T13:29:54.017Z,101734.00
2022-10-22T13:34:57.822Z,101728.63
2022-10-22T13:40:00.148Z,101724.09
2022-10-22T13:45:02.144Z,101716.91
2022-10-22T13:50:07.664Z,101731.84
2022-10-22T13:55:19.925Z,101715.88
2022-10-22T14:00:25.977Z,101709.66
2022-10-22T14:05:28.192Z,101705.13
2022-10-22T14:10:30.470Z,101700.59
2022-10-22T14:15:32.501Z,101692.53
2022-10-22T14:20:38.109Z,101697.25
2022-10-22T14:25:40.497Z,101690.84
2022-10-22T14:30:42.780Z,101697.06
2022-10-22T14:35:45.255Z,101692.53
2022-10-22T14:40:47.658Z,101691.56
2022-10-22T14:45:50.564Z,101679.13
2022-10-22T14:50:52.801Z,101676.44
2022-10-22T14:55:58.649Z,101684.50
2022-10-22T15:01:03.259Z,101680.09
2022-10-22T15:06:05.696Z,101682.66
2022-10-22T15:11:10.704Z,101675.56
2022-10-22T15:16:15.017Z,101672.75
2022-10-22T15:21:20.241Z,101670.06
2022-10-22T15:26:22.390Z,101672.75
2022-10-22T15:31:47.868Z,101673.75
2022-10-22T15:36:50.738Z,101667.69
2022-10-22T15:41:53.889Z,101672.91
2022-10-22T15:46:56.550Z,101657.63
2022-10-22T15:51:58.565Z,101657.47
2022-10-22T15:57:08.808Z,101656.63
2022-10-22T16:02:11.939Z,101658.47
2022-10-22T16:07:14.105Z,101667.38
2022-10-22T16:12:17.328Z,101670.22
2022-10-22T16:17:19.543Z,101668.22
2022-10-22T16:22:21.774Z,101670.06
2022-10-22T16:27:23.859Z,101671.75
2022-10-22T16:32:25.946Z,101678.97
2022-10-22T16:37:28.374Z,101679.81
2022-10-22T16:42:30.399Z,101675.44
2022-10-22T16:47:32.484Z,101678.84
2022-10-22T16:52:34.650Z,101680.66
2022-10-22T16:57:36.845Z,101687.03
2022-10-22T17:02:39.031Z,101686.03
2022-10-22T17:07:41.284Z,101687.03
2022-10-22T17:12:43.484Z,101673.59
2022-10-22T17:17:48.618Z,101682.50
2022-10-22T17:22:50.676Z,101687.88
2022-10-22T17:27:55.982Z,101684.09
2022-10-22T17:32:58.113Z,101698.63
2022-10-22T17:38:00.225Z,101705.84
2022-10-22T17:43:02.197Z,101706.69
2022-10-22T17:48:04.190Z,101716.44
2022-10-22T17:53:06.081Z,101716.44
2022-10-22T17:58:08.099Z,101733.56
2022-10-22T18:03:11.204Z,101738.94
2022-10-22T18:08:13.445Z,101747.84
2022-10-22T18:13:15.515Z,101749.53
2022-10-22T18:18:17.504Z,101750.53
2022-10-22T18:23:20.390Z,101763.09
2022-10-22T18:28:22.380Z,101765.78
2022-10-22T18:33:25.326Z,101770.31
2022-10-22T18:38:27.296Z,101764.69
2022-10-22T18:43:29.389Z,101771.31
2022-10-22T18:48:31.476Z,101774.84
2022-10-22T18:53:34.285Z,101765.78
2022-10-22T18:58:41.069Z,101773.84
2022-10-22T19:03:43.125Z,101789.97
2022-10-22T19:08:46.880Z,101784.59
2022-10-22T19:13:53.289Z,101775.69
2022-10-22T19:19:04.100Z,101767.63
2022-10-22T19:24:06.917Z,101772.00
2022-10-22T19:29:11.194Z,101770.31
2022-10-22T19:34:14.419Z,101760.56
2022-10-22T19:39:16.798Z,101766.06
2022-10-22T19:44:20.077Z,101757.72
2022-10-22T19:49:23.129Z,101761.41
2022-10-22T19:54:25.579Z,101745.59
2022-10-22T19:59:29.968Z,101750.81
2022-10-22T20:04:36.029Z,101756.88
2022-10-22T20:09:38.093Z,101752.38
2022-10-22T20:14:40.637Z,101744.31
2022-10-22T20:19:42.722Z,101745.28
2022-10-22T20:24:45.170Z,101746.13
2022-10-22T20:29:47.146Z,101745.28
2022-10-22T20:34:49.188Z,101737.38
2022-10-22T20:39:51.256Z,101737.22
2022-10-22T20:44:53.288Z,101760.69
2022-10-22T20:49:55.708Z,101771.31
2022-10-22T20:54:57.701Z,101750.66
2022-10-22T20:59:59.803Z,101749.66
2022-10-22T21:05:02.031Z,101745.44
2022-10-22T21:10:04.752Z,101738.97
2022-10-22T21:15:10.227Z,101749.72
2022-10-22T21:20:14.695Z,101770.47
2022-10-22T21:25:16.815Z,101776.69
2022-10-22T21:30:18.917Z,101813.44
2022-10-22T21:35:20.909Z,101832.09
2022-10-22T21:40:22.968Z,101806.09
2022-10-22T21:45:25.130Z,101824.06
2022-10-22T21:50:27.353Z,101813.31
2022-10-22T21:55:30.542Z,101809.75
2022-10-22T22:00:32.389Z,101813.44
2022-10-22T22:05:34.445Z,101816.84
2022-10-22T22:10:36.516Z,101817.81
2022-10-22T22:15:38.530Z,101808.78
2022-10-22T22:20:40.522Z,101807.94
2022-10-22T22:25:42.881Z,101800.84
2022-10-22T22:30:44.815Z,101800.84
2022-10-22T22:35:46.799Z,101807.94
2022-10-22T22:40:48.808Z,101804.41
2022-10-22T22:45:59.821Z,101807.22
2022-10-22T22:51:03.658Z,101798.47
2022-10-22T22:56:09.984Z,101804.53
2022-10-22T23:01:19.608Z,101794.50
2022-10-22T23:06:22.182Z,101799.88
2022-10-22T23:11:26.264Z,101791.53
2022-10-22T23:16:31.467Z,101798.31
2022-10-22T23:21:37.386Z,101800.00
2022-10-22T23:26:43.914Z,101791.94
2022-10-22T23:31:47.468Z,101783.88
2022-10-22T23:36:49.668Z,101778.50
2022-10-22T23:41:53.386Z,101774.13
2022-10-22T23:46:55.550Z,101777.66
2022-10-22T23:51:57.554Z,101777.66
2022-10-22T23:56:59.513Z,101797.31
